Time;durP1;ratioP1;P1;durP2;ratioP2;P2;SDS_P1;SDS_P2;PMS_P1;PMS_P2;Temp;Humidity;BMP_temperature;BMP_pressure;BME280_temperature;BME280_humidity;BME280_pressure;Samples;Min_cycle;Max_cycle;Signal;HPM_P1;HPM_P2
2022/08/01 00:00:41;;;;;;;10.85;6.40;;;18.10;99.90;;;;;;5072345;28;20047;-70
2022/08/01 00:03:06;;;;;;;11.20;6.03;;;18.20;99.90;;;;;;5091204;28;20059;-71
2022/08/01 00:05:32;;;;;;;12.32;6.18;;;18.30;99.90;;;;;;5073185;28;20094;-70
2022/08/01 00:07:58;;;;;;;9.45;5.47;;;18.10;99.90;;;;;;5093684;28;20035;-70
2022/08/01 00:10:24;;;;;;;10.43;5.07;;;18.20;99.90;;;;;;5094549;28;20083;-70
2022/08/01 00:12:49;;;;;;;11.40;6.30;;;18.00;99.90;;;;;;5094438;28;20531;-70
2022/08/01 00:15:16;;;;;;;11.40;6.15;;;18.10;99.90;;;;;;5076532;28;20040;-70
2022/08/01 00:17:43;;;;;;;9.20;6.28;;;18.10;99.90;;;;;;5076691;28;20444;-70
2022/08/01 00:20:10;;;;;;;9.27;5.72;;;18.10;99.90;;;;;;5094578;28;20028;-70
2022/08/01 00:22:36;;;;;;;9.75;5.85;;;18.00;99.90;;;;;;5094505;28;20032;-70
2022/08/01 00:25:03;;;;;;;9.73;5.90;;;18.20;99.90;;;;;;5094507;28;20040;-70
2022/08/01 00:27:29;;;;;;;10.27;5.63;;;18.10;99.90;;;;;;5076631;28;20393;-70
2022/08/01 00:29:55;;;;;;;8.90;5.85;;;18.20;99.90;;;;;;5094452;28;20051;-70
2022/08/01 00:32:20;;;;;;;8.02;5.38;;;18.20;99.90;;;;;;5076248;28;20489;-70
2022/08/01 00:34:46;;;;;;;9.88;4.68;;;18.20;99.90;;;;;;5094458;28;20040;-70
2022/08/01 00:37:11;;;;;;;6.78;4.68;;;18.20;99.90;;;;;;5094525;28;20066;-70
2022/08/01 00:39:37;;;;;;;9.48;4.70;;;18.10;99.90;;;;;;5094151;28;20040;-70
2022/08/01 00:42:07;;;;;;;8.27;4.57;;;18.10;99.90;;;;;;5094084;28;20512;-70
2022/08/01 00:44:33;;;;;;;5.43;4.38;;;18.10;99.90;;;;;;5094412;28;20040;-70
2022/08/01 00:46:59;;;;;;;7.70;4.47;;;18.10;99.90;;;;;;5094148;28;20039;-70
2022/08/01 00:49:25;;;;;;;8.43;4.80;;;18.00;99.90;;;;;;5094030;28;20036;-70
2022/08/01 00:51:51;;;;;;;6.00;4.47;;;18.00;99.90;;;;;;5094056;28;20028;-70
2022/08/01 00:54:16;;;;;;;5.78;3.88;;;18.10;99.90;;;;;;5093824;28;20067;-70
2022/08/01 00:56:42;;;;;;;9.55;4.25;;;18.00;99.90;;;;;;5093750;28;20040;-70
2022/08/01 00:59:10;;;;;;;10.45;5.00;;;17.90;99.90;;;;;;5094043;28;20044;-70
2022/08/01 01:01:36;;;;;;;7.45;5.53;;;18.10;99.90;;;;;;5093622;28;20050;-70
2022/08/01 01:04:02;;;;;;;9.75;5.10;;;17.90;99.90;;;;;;5075755;28;20039;-70
2022/08/01 01:06:44;;;;;;;10.82;5.15;;;18.10;99.90;;;;;;5075432;28;20078;-70
2022/08/01 01:09:40;;;;;;;12.00;5.72;;;17.80;99.90;;;;;;5093504;28;20050;-70
2022/08/01 01:12:12;;;;;;;10.38;5.95;;;18.10;99.90;;;;;;5093503;28;20084;-70
2022/08/01 01:14:46;;;;;;;8.35;5.53;;;17.80;99.90;;;;;;5093500;28;20032;-70
2022/08/01 01:17:16;;;;;;;9.85;6.43;;;18.00;99.90;;;;;;5075386;28;20047;-70
2022/08/01 01:19:47;;;;;;;12.57;6.07;;;17.90;99.90;;;;;;5057532;28;20075;-70
2022/08/01 01:22:24;;;;;;;9.63;6.00;;;17.80;99.90;;;;;;5093548;28;20036;-70
2022/08/01 01:25:04;;;;;;;11.10;5.30;;;18.00;99.90;;;;;;5093588;28;20044;-70
2022/08/01 01:27:46;;;;;;;12.98;5.25;;;18.00;99.90;;;;;;5093474;28;20474;-70
2022/08/01 01:30:12;;;;;;;10.70;5.65;;;17.90;99.90;;;;;;5093023;28;20051;-70
2022/08/01 01:32:49;;;;;;;12.52;5.97;;;17.90;99.90;;;;;;5093314;28;20040;-70
2022/08/01 01:35:20;;;;;;;11.27;5.43;;;17.80;99.90;;;;;;5093276;28;20048;-70
2022/08/01 01:37:48;;;;;;;9.68;4.53;;;17.80;99.90;;;;;;5093345;28;20036;-70
2022/08/01 01:40:16;;;;;;;11.77;5.20;;;18.00;99.90;;;;;;5092851;28;20040;-70
2022/08/01 01:42:42;;;;;;;5.32;4.18;;;17.80;99.90;;;;;;5093071;28;20091;-70
2022/08/01 01:45:09;;;;;;;11.75;4.30;;;17.70;99.90;;;;;;5093279;28;20082;-70
2022/08/01 01:47:37;;;;;;;8.93;4.32;;;17.70;99.90;;;;;;5092924;28;20075;-70
2022/08/01 01:50:06;;;;;;;5.13;4.10;;;17.70;99.90;;;;;;5074511;28;20036;-70
2022/08/01 01:52:32;;;;;;;7.35;4.00;;;17.70;99.90;;;;;;5074261;28;20050;-70
2022/08/01 01:54:59;;;;;;;9.18;3.80;;;17.80;99.90;;;;;;5073769;28;20032;-70
2022/08/01 01:57:27;;;;;;;6.97;3.72;;;17.80;99.90;;;;;;5073929;28;20044;-70
2022/08/01 01:59:54;;;;;;;6.97;3.15;;;17.70;99.90;;;;;;5073533;28;20040;-70
2022/08/01 02:02:23;;;;;;;7.05;4.00;;;17.60;99.90;;;;;;5073805;28;20040;-70
2022/08/01 02:04:50;;;;;;;6.30;3.40;;;17.60;99.90;;;;;;5073750;28;20132;-70
2022/08/01 02:07:22;;;;;;;7.68;3.20;;;17.50;99.90;;;;;;5073662;28;20048;-70
2022/08/01 02:09:48;;;;;;;10.50;3.72;;;17.50;99.90;;;;;;5073289;28;20406;-70
2022/08/01 02:12:17;;;;;;;6.22;2.75;;;17.60;99.90;;;;;;5091842;28;20043;-70
2022/08/01 02:14:45;;;;;;;6.43;2.80;;;17.40;99.90;;;;;;5091653;28;20071;-70
2022/08/01 02:17:15;;;;;;;7.93;3.08;;;17.40;99.90;;;;;;5073457;28;20040;-70
2022/08/01 02:19:40;;;;;;;5.32;2.70;;;17.50;99.90;;;;;;5091203;28;20520;-70
2022/08/01 02:22:10;;;;;;;7.30;2.60;;;17.40;99.90;;;;;;5091327;28;20036;-70
2022/08/01 02:24:51;;;;;;;8.55;1.90;;;17.40;99.90;;;;;;5091501;28;20521;-70
2022/08/01 02:27:34;;;;;;;7.03;1.92;;;17.40;99.90;;;;;;5073622;28;20043;-70
2022/08/01 02:30:06;;;;;;;4.47;1.53;;;17.40;99.90;;;;;;5073021;28;20043;-70
2022/08/01 02:32:38;;;;;;;6.63;2.42;;;17.50;99.90;;;;;;5072971;28;20941;-70
2022/08/01 02:35:07;;;;;;;8.13;2.22;;;17.30;99.90;;;;;;5091572;28;20123;-70
2022/08/01 02:37:36;;;;;;;4.95;2.30;;;17.40;99.90;;;;;;5073398;28;20076;-70
2022/08/01 02:40:03;;;;;;;7.32;2.03;;;17.40;99.90;;;;;;5091084;28;20081;-70
2022/08/01 02:42:30;;;;;;;8.13;2.75;;;17.40;99.90;;;;;;5091103;28;20040;-70
2022/08/01 02:44:57;;;;;;;12.48;2.80;;;17.20;99.90;;;;;;5073128;28;20050;-70
2022/08/01 02:47:24;;;;;;;11.60;2.30;;;17.40;99.90;;;;;;5073255;28;20397;-70
2022/08/01 02:49:52;;;;;;;9.23;2.55;;;17.20;99.90;;;;;;5091053;28;20082;-70
2022/08/01 02:52:20;;;;;;;11.57;3.13;;;17.30;99.90;;;;;;5036130;28;1058154;-70
2022/08/01 02:54:49;;;;;;;7.15;2.25;;;17.20;99.90;;;;;;5092013;28;20044;-70
2022/08/01 02:57:17;;;;;;;11.02;3.00;;;17.20;99.90;;;;;;5091864;28;20074;-70
2022/08/01 02:59:45;;;;;;;5.68;2.75;;;17.30;99.90;;;;;;5091801;28;20032;-70
2022/08/01 03:02:12;;;;;;;10.85;2.80;;;17.20;99.90;;;;;;5091674;28;20540;-70
2022/08/01 03:04:41;;;;;;;11.52;3.30;;;17.20;99.90;;;;;;5091953;28;20046;-70
2022/08/01 03:07:09;;;;;;;11.43;3.45;;;17.10;99.90;;;;;;5073710;28;20044;-70
2022/08/01 03:09:41;;;;;;;9.52;2.83;;;17.30;99.90;;;;;;5073356;28;20486;-70
2022/08/01 03:12:13;;;;;;;8.25;3.20;;;17.30;99.90;;;;;;5073421;28;20055;-70
2022/08/01 03:14:41;;;;;;;11.90;3.45;;;17.30;99.90;;;;;;5091872;28;20025;-70
2022/08/01 03:17:08;;;;;;;14.15;3.40;;;17.30;99.90;;;;;;5073664;28;20097;-70
2022/08/01 03:19:37;;;;;;;13.60;3.33;;;17.10;99.90;;;;;;5073597;28;20117;-70
2022/08/01 03:22:08;;;;;;;9.82;3.55;;;17.20;99.90;;;;;;5072422;28;20036;-70
2022/08/01 03:24:36;;;;;;;16.08;4.68;;;17.10;99.90;;;;;;5072920;28;20036;-70
2022/08/01 03:27:03;;;;;;;12.98;4.10;;;17.20;99.90;;;;;;5090701;28;20086;-70
2022/08/01 03:29:31;;;;;;;13.65;4.68;;;17.10;99.90;;;;;;5091037;28;20040;-70
2022/08/01 03:31:59;;;;;;;10.82;4.05;;;17.20;99.90;;;;;;5091636;28;20118;-70
2022/08/01 03:34:27;;;;;;;12.70;4.35;;;17.00;99.90;;;;;;5091430;28;20120;-70
2022/08/01 03:37:02;;;;;;;11.95;4.00;;;17.10;99.90;;;;;;5091482;28;20048;-70
2022/08/01 03:39:33;;;;;;;13.70;3.70;;;16.90;99.90;;;;;;5091524;28;20078;-70
2022/08/01 03:42:07;;;;;;;15.48;4.47;;;17.00;99.90;;;;;;5092406;28;20091;-70
2022/08/01 03:44:35;;;;;;;12.65;3.90;;;17.00;99.90;;;;;;5095544;28;20067;-70
2022/08/01 03:47:05;;;;;;;8.60;3.60;;;17.00;99.90;;;;;;5077232;28;20040;-70
2022/08/01 03:49:34;;;;;;;12.23;4.55;;;17.00;99.90;;;;;;5095164;28;20036;-70
2022/08/01 03:52:06;;;;;;;11.73;3.90;;;16.90;99.90;;;;;;5095027;28;20624;-70
2022/08/01 03:54:35;;;;;;;10.85;3.70;;;16.80;99.90;;;;;;5076945;28;20048;-70
2022/08/01 03:57:02;;;;;;;11.00;4.15;;;16.90;99.90;;;;;;5060218;28;20036;-70
2022/08/01 03:59:29;;;;;;;14.15;4.32;;;17.00;99.90;;;;;;5076565;28;20032;-70
2022/08/01 04:01:56;;;;;;;12.32;3.65;;;16.90;99.90;;;;;;5076721;28;20036;-70
2022/08/01 04:04:22;;;;;;;11.63;5.03;;;16.80;99.90;;;;;;5095044;28;20513;-70
2022/08/01 04:06:53;;;;;;;12.75;3.83;;;16.90;99.90;;;;;;5077047;28;20044;-70
2022/08/01 04:09:19;;;;;;;14.70;4.88;;;16.90;99.90;;;;;;5076746;28;20051;-70
2022/08/01 04:11:45;;;;;;;16.50;4.00;;;16.70;99.90;;;;;;5076688;28;20035;-70
2022/08/01 04:14:11;;;;;;;12.68;3.85;;;16.80;99.90;;;;;;5094716;28;20043;-70
2022/08/01 04:16:37;;;;;;;14.63;5.28;;;16.70;99.90;;;;;;5076490;28;20071;-70
2022/08/01 04:19:02;;;;;;;10.50;4.38;;;16.70;99.90;;;;;;5076924;28;20115;-70
2022/08/01 04:21:32;;;;;;;15.10;4.25;;;16.90;99.90;;;;;;5094729;28;20107;-70
2022/08/01 04:24:04;;;;;;;11.77;4.20;;;16.60;99.90;;;;;;5094439;28;20039;-70
2022/08/01 04:26:32;;;;;;;11.98;3.63;;;16.70;99.90;;;;;;5076592;28;20044;-70
2022/08/01 04:29:00;;;;;;;12.93;4.13;;;16.70;99.90;;;;;;5076372;28;20118;-71
2022/08/01 04:31:27;;;;;;;14.23;4.22;;;16.70;99.90;;;;;;5094430;28;20070;-71
2022/08/01 04:33:55;;;;;;;13.88;4.80;;;16.70;99.90;;;;;;5076509;28;20051;-70
2022/08/01 04:36:24;;;;;;;12.20;4.00;;;16.80;99.90;;;;;;5076259;28;20048;-70
2022/08/01 04:38:55;;;;;;;13.80;4.07;;;16.70;99.90;;;;;;5094228;28;20486;-71
2022/08/01 04:41:22;;;;;;;10.25;4.10;;;16.80;99.90;;;;;;5094197;28;20067;-70
2022/08/01 04:43:48;;;;;;;17.90;4.25;;;16.60;99.90;;;;;;5094123;28;20032;-70
2022/08/01 04:46:15;;;;;;;11.70;3.45;;;16.80;99.90;;;;;;5076138;28;20044;-71
2022/08/01 04:48:41;;;;;;;16.40;4.32;;;16.50;99.90;;;;;;5072741;28;20097;-70
2022/08/01 04:51:17;;;;;;;16.80;3.67;;;16.50;99.90;;;;;;5081659;28;20081;-70
2022/08/01 04:53:45;;;;;;;21.33;4.18;;;16.60;99.90;;;;;;5072429;28;20067;-70
2022/08/01 04:56:12;;;;;;;11.70;3.67;;;16.50;99.90;;;;;;5073679;28;20106;-70
2022/08/01 04:58:42;;;;;;;15.55;3.60;;;16.40;99.90;;;;;;5055963;28;20063;-70
2022/08/01 05:01:08;;;;;;;15.20;3.67;;;16.50;99.90;;;;;;5073625;28;20033;-70
2022/08/01 05:03:34;;;;;;;16.23;4.35;;;16.50;99.90;;;;;;5073739;28;20043;-70
2022/08/01 05:05:59;;;;;;;16.92;4.25;;;16.50;99.90;;;;;;5073701;28;20040;-70
2022/08/01 05:08:25;;;;;;;20.38;4.00;;;16.40;99.90;;;;;;5073642;28;20079;-71
2022/08/01 05:10:50;;;;;;;21.75;3.60;;;16.50;99.90;;;;;;5073215;28;20051;-70
2022/08/01 05:13:16;;;;;;;18.35;3.83;;;16.50;99.90;;;;;;5055511;28;20043;-71
2022/08/01 05:15:42;;;;;;;11.02;3.50;;;16.40;99.90;;;;;;5055499;28;20127;-70
2022/08/01 05:18:07;;;;;;;17.25;4.10;;;16.50;99.90;;;;;;5039154;28;20048;-70
2022/08/01 05:20:33;;;;;;;11.20;3.47;;;16.60;99.90;;;;;;5073131;28;20040;-71
2022/08/01 05:22:58;;;;;;;15.85;4.40;;;16.50;99.90;;;;;;5084045;28;20493;-70
2022/08/01 05:25:24;;;;;;;20.00;4.18;;;16.60;99.90;;;;;;5071588;28;20040;-70
2022/08/01 05:27:49;;;;;;;16.25;3.55;;;16.60;99.90;;;;;;5078506;28;20028;-71
2022/08/01 05:30:15;;;;;;;16.90;4.55;;;16.60;99.90;;;;;;5055264;28;20169;-70
2022/08/01 05:32:41;;;;;;;12.82;4.60;;;16.70;99.90;;;;;;5055119;28;20053;-71
2022/08/01 05:35:08;;;;;;;19.65;4.80;;;16.50;99.90;;;;;;5072933;28;20032;-68
2022/08/01 05:37:34;;;;;;;13.57;4.18;;;16.60;99.90;;;;;;5055287;28;20052;-69
2022/08/01 05:39:59;;;;;;;15.52;3.83;;;16.60;99.90;;;;;;5072645;28;20030;-69
2022/08/01 05:42:25;;;;;;;17.08;4.32;;;16.60;99.90;;;;;;5073019;28;20043;-69
2022/08/01 05:44:51;;;;;;;22.75;5.75;;;16.70;99.90;;;;;;5073038;28;20413;-68
2022/08/01 05:47:17;;;;;;;16.77;3.97;;;16.50;99.90;;;;;;5054972;28;20044;-69
2022/08/01 05:49:43;;;;;;;17.92;4.65;;;16.40;99.90;;;;;;5072577;28;20094;-69
2022/08/01 05:54:39;;;;;;;14.38;4.28;;;16.50;99.90;;;;;;5151117;22;20110;-72
2022/08/01 05:57:05;;;;;;;16.10;3.55;;;16.80;99.90;;;;;;5133956;27;20039;-72
2022/08/01 05:59:31;;;;;;;12.00;3.97;;;16.50;99.90;;;;;;5132423;27;20046;-72
2022/08/01 06:01:56;;;;;;;21.60;4.93;;;16.70;99.90;;;;;;5133771;27;20035;-72
2022/08/01 06:04:22;;;;;;;19.02;4.03;;;16.60;99.90;;;;;;5133147;27;20035;-72
2022/08/01 06:06:48;;;;;;;16.88;4.07;;;16.70;99.90;;;;;;5133529;27;20042;-72
2022/08/01 06:09:13;;;;;;;19.23;4.35;;;16.70;99.90;;;;;;5131815;27;20035;-73
2022/08/01 06:11:39;;;;;;;15.15;4.50;;;16.60;99.90;;;;;;5133700;27;20035;-72
2022/08/01 06:14:05;;;;;;;18.90;4.63;;;16.70;99.90;;;;;;5133512;27;20393;-72
2022/08/01 06:16:30;;;;;;;12.25;3.42;;;16.60;99.90;;;;;;5133503;27;20144;-72
2022/08/01 06:18:56;;;;;;;21.77;4.40;;;16.80;99.90;;;;;;5133383;27;20046;-72
2022/08/01 06:21:21;;;;;;;10.35;4.25;;;16.70;99.90;;;;;;5132913;27;20054;-72
2022/08/01 06:23:47;;;;;;;20.58;5.38;;;16.70;99.90;;;;;;5133139;27;20118;-72
2022/08/01 06:26:12;;;;;;;17.80;3.60;;;16.70;99.90;;;;;;5133454;27;20031;-72
2022/08/01 06:28:38;;;;;;;18.00;4.57;;;16.70;99.90;;;;;;5133338;27;20519;-72
2022/08/01 06:31:04;;;;;;;19.83;4.70;;;16.80;99.90;;;;;;5131813;27;20126;-72
2022/08/01 06:33:30;;;;;;;15.52;4.00;;;16.80;99.90;;;;;;5132586;27;20043;-73
2022/08/01 06:35:56;;;;;;;11.00;3.63;;;16.80;99.90;;;;;;5128420;27;20152;-73
2022/08/01 06:38:22;;;;;;;15.23;4.53;;;16.80;99.90;;;;;;5112245;28;20036;-72
2022/08/01 06:40:47;;;;;;;19.48;4.35;;;17.10;99.90;;;;;;5112056;28;20074;-73
2022/08/01 06:43:13;;;;;;;17.27;4.63;;;16.90;99.90;;;;;;5112268;28;20044;-72
2022/08/01 06:45:40;;;;;;;18.30;4.22;;;17.10;99.90;;;;;;5112453;28;20118;-73
2022/08/01 06:48:05;;;;;;;15.85;4.97;;;16.80;99.90;;;;;;5111156;28;20044;-72
2022/08/01 06:50:31;;;;;;;14.85;3.97;;;17.00;99.90;;;;;;5111867;28;20058;-73
2022/08/01 06:52:57;;;;;;;14.70;4.45;;;17.10;99.90;;;;;;5111631;28;20074;-73
2022/08/01 06:55:23;;;;;;;17.80;4.88;;;17.20;99.90;;;;;;5112359;28;20078;-73
2022/08/01 06:57:51;;;;;;;20.35;4.35;;;17.20;99.90;;;;;;5112352;28;20501;-73
2022/08/01 07:00:20;;;;;;;16.25;4.18;;;17.10;99.90;;;;;;5112050;28;20042;-73
2022/08/01 07:02:46;;;;;;;19.88;4.30;;;17.10;99.90;;;;;;5112085;28;20078;-73
2022/08/01 07:05:12;;;;;;;21.40;4.40;;;17.10;99.90;;;;;;5112106;28;20615;-72
2022/08/01 07:07:38;;;;;;;22.83;4.50;;;17.20;99.90;;;;;;5112085;28;20096;-73
2022/08/01 07:10:04;;;;;;;16.95;4.45;;;17.10;99.90;;;;;;5111875;28;20115;-72
2022/08/01 07:12:30;;;;;;;15.90;4.30;;;17.00;99.90;;;;;;5112134;28;20063;-72
2022/08/01 07:14:56;;;;;;;15.45;4.15;;;17.00;99.90;;;;;;5112122;28;20121;-72
2022/08/01 07:17:21;;;;;;;18.90;4.50;;;16.90;99.90;;;;;;5113836;28;20043;-72
2022/08/01 07:19:47;;;;;;;15.95;5.15;;;17.00;99.90;;;;;;5115961;28;20038;-73
2022/08/01 07:22:16;;;;;;;19.25;4.35;;;17.10;99.90;;;;;;5114978;28;20054;-73
2022/08/01 07:24:42;;;;;;;13.75;3.97;;;17.10;99.90;;;;;;5116350;28;20032;-73
2022/08/01 07:27:07;;;;;;;15.63;3.72;;;17.10;99.90;;;;;;5115008;28;20027;-73
2022/08/01 07:29:33;;;;;;;12.18;3.83;;;17.20;99.90;;;;;;5115848;28;20080;-73
2022/08/01 07:31:58;;;;;;;12.27;3.42;;;17.30;99.90;;;;;;5116191;28;20412;-73
2022/08/01 07:34:24;;;;;;;14.43;3.63;;;17.20;99.90;;;;;;5115744;28;20028;-73
2022/08/01 07:36:51;;;;;;;13.45;3.30;;;17.30;99.90;;;;;;5115901;28;20508;-73
2022/08/01 07:39:16;;;;;;;13.75;4.00;;;17.30;99.90;;;;;;5115886;28;20127;-73
2022/08/01 07:41:42;;;;;;;17.98;3.35;;;17.20;99.90;;;;;;5129711;27;20465;-73
2022/08/01 07:44:08;;;;;;;14.48;3.78;;;17.60;99.90;;;;;;5136509;27;20114;-73
2022/08/01 07:46:33;;;;;;;14.90;4.05;;;17.90;99.90;;;;;;5136438;27;20381;-73
2022/08/01 07:48:59;;;;;;;22.27;4.00;;;18.00;99.90;;;;;;5135001;27;20170;-73
2022/08/01 07:51:25;;;;;;;11.27;3.45;;;18.00;99.90;;;;;;5136196;27;20512;-73
2022/08/01 07:53:50;;;;;;;12.82;3.55;;;18.20;99.90;;;;;;5136198;27;20046;-73
2022/08/01 07:56:16;;;;;;;19.67;3.97;;;18.10;99.90;;;;;;5136138;27;20074;-73
2022/08/01 07:58:42;;;;;;;11.43;3.53;;;18.00;99.90;;;;;;5136197;27;20031;-73
2022/08/01 08:01:07;;;;;;;16.08;3.30;;;18.10;99.90;;;;;;5135707;27;20141;-73
2022/08/01 08:03:33;;;;;;;12.68;2.67;;;18.20;99.90;;;;;;5135946;27;20031;-73
2022/08/01 08:05:58;;;;;;;14.40;2.80;;;18.20;99.90;;;;;;5135846;27;20035;-73
2022/08/01 08:08:24;;;;;;;12.98;2.72;;;18.40;99.90;;;;;;5136072;27;20035;-74
2022/08/01 08:10:50;;;;;;;13.20;2.83;;;18.50;99.90;;;;;;5134344;27;20050;-74
2022/08/01 08:13:15;;;;;;;9.63;2.80;;;18.80;99.90;;;;;;5135869;27;20047;-74
2022/08/01 08:15:41;;;;;;;14.23;2.70;;;19.00;99.90;;;;;;5135816;27;20093;-73
2022/08/01 08:18:07;;;;;;;12.52;2.72;;;19.10;99.90;;;;;;5135727;27;20051;-73
2022/08/01 08:20:32;;;;;;;10.50;3.40;;;19.40;99.90;;;;;;5135349;27;20496;-74
2022/08/01 08:22:58;;;;;;;6.88;2.17;;;19.40;99.90;;;;;;5134347;27;20373;-74
2022/08/01 08:25:24;;;;;;;11.30;2.85;;;19.70;99.90;;;;;;5135761;27;20039;-74
2022/08/01 08:27:50;;;;;;;12.90;3.42;;;20.10;99.90;;;;;;5135359;27;20031;-74
2022/08/01 08:30:16;;;;;;;9.70;2.38;;;20.40;99.90;;;;;;5117064;27;20408;-73
2022/08/01 08:32:42;;;;;;;10.88;3.45;;;20.50;99.90;;;;;;5135416;27;20038;-73
2022/08/01 08:35:08;;;;;;;11.95;2.17;;;20.60;99.90;;;;;;5135216;27;20043;-73
2022/08/01 08:37:34;;;;;;;13.63;2.97;;;20.90;99.90;;;;;;5135486;27;20042;-73
2022/08/01 08:40:00;;;;;;;16.05;2.90;;;20.80;99.90;;;;;;5135058;27;20043;-74
2022/08/01 08:42:26;;;;;;;12.25;2.53;;;20.90;99.90;;;;;;5135308;27;20039;-73
2022/08/01 08:44:54;;;;;;;14.18;2.80;;;21.00;99.90;;;;;;5135294;27;20039;-73
2022/08/01 08:47:21;;;;;;;10.95;2.35;;;21.20;99.90;;;;;;5135163;27;20374;-73
2022/08/01 08:49:48;;;;;;;9.98;2.25;;;21.10;99.90;;;;;;5134747;27;20445;-73
2022/08/01 08:52:15;;;;;;;11.45;2.58;;;21.20;99.90;;;;;;5134150;27;20047;-72
2022/08/01 08:54:41;;;;;;;11.32;2.80;;;20.70;99.70;;;;;;5133322;27;20042;-73
2022/08/01 08:57:07;;;;;;;9.27;2.28;;;20.40;99.50;;;;;;5131070;27;20046;-72
2022/08/01 08:59:33;;;;;;;8.75;2.13;;;20.70;99.50;;;;;;5129551;27;20027;-73
2022/08/01 09:01:59;;;;;;;12.23;2.22;;;20.80;97.10;;;;;;5126694;27;20499;-73
2022/08/01 09:04:25;;;;;;;9.57;2.05;;;20.90;97.80;;;;;;5129062;27;20038;-72
2022/08/01 09:06:52;;;;;;;11.63;2.80;;;21.20;97.10;;;;;;5135041;27;20043;-72
2022/08/01 09:09:17;;;;;;;11.52;1.90;;;21.30;97.00;;;;;;5134670;27;20058;-73
2022/08/01 09:11:43;;;;;;;6.30;2.17;;;20.70;96.10;;;;;;5125133;27;20043;-72
2022/08/01 09:14:11;;;;;;;15.30;2.80;;;20.50;97.40;;;;;;5132425;27;20038;-72
2022/08/01 09:16:44;;;;;;;8.73;2.13;;;20.70;98.90;;;;;;5114331;27;20141;-73
2022/08/01 09:19:15;;;;;;;14.70;2.78;;;21.10;99.60;;;;;;5113919;28;20046;-74
2022/08/01 09:21:59;;;;;;;13.48;3.50;;;21.30;99.60;;;;;;5113413;28;20124;-73
2022/08/01 09:24:26;;;;;;;7.85;1.75;;;20.60;97.60;;;;;;5115633;27;20042;-73
2022/08/01 09:26:53;;;;;;;11.93;2.25;;;20.60;99.80;;;;;;5115712;27;20044;-72
2022/08/01 09:29:24;;;;;;;11.00;2.58;;;20.30;98.60;;;;;;5112456;28;20434;-73
2022/08/01 09:31:51;;;;;;;11.68;2.58;;;20.60;98.60;;;;;;5116596;27;20400;-73
2022/08/01 09:34:27;;;;;;;12.95;2.22;;;20.70;98.10;;;;;;5115641;27;20047;-74
2022/08/01 09:36:55;;;;;;;13.60;3.13;;;20.70;97.30;;;;;;5130464;27;20039;-73
2022/08/01 09:39:33;;;;;;;9.55;1.88;;;20.60;97.40;;;;;;5130844;27;20043;-73
2022/08/01 09:42:01;;;;;;;8.32;2.00;;;20.60;96.10;;;;;;5117400;27;20107;-73
2022/08/01 09:44:44;;;;;;;8.48;2.20;;;20.90;95.30;;;;;;5115053;27;20043;-73
2022/08/01 09:47:10;;;;;;;7.93;2.13;;;20.80;94.70;;;;;;5113252;28;20036;-73
2022/08/01 09:49:38;;;;;;;11.27;1.67;;;20.60;97.30;;;;;;5111644;28;20088;-73
2022/08/01 09:52:14;;;;;;;10.98;2.25;;;20.60;97.90;;;;;;5111666;28;20035;-74
2022/08/01 09:54:41;;;;;;;11.30;1.60;;;20.70;98.90;;;;;;5112764;28;20394;-75
2022/08/01 09:57:18;;;;;;;10.40;2.10;;;20.20;97.30;;;;;;5112646;28;20052;-74
2022/08/01 09:59:46;;;;;;;10.00;1.80;;;20.40;96.90;;;;;;5118960;27;20039;-73
2022/08/01 10:02:25;;;;;;;6.80;1.52;;;20.70;97.70;;;;;;5120484;27;20063;-73
2022/08/01 10:04:51;;;;;;;5.32;1.60;;;21.00;95.90;;;;;;5119816;27;20035;-74
2022/08/01 10:07:18;;;;;;;9.75;2.45;;;21.00;95.80;;;;;;5124091;27;20393;-73
2022/08/01 10:09:45;;;;;;;11.20;2.13;;;21.00;97.00;;;;;;5100150;27;20409;-74
2022/08/01 10:12:16;;;;;;;10.05;1.75;;;20.80;96.70;;;;;;5121288;27;20039;-73
2022/08/01 10:14:46;;;;;;;7.75;1.63;;;20.90;95.80;;;;;;5111865;28;20044;-73
2022/08/01 10:17:14;;;;;;;8.07;1.65;;;21.10;95.30;;;;;;5112580;28;20401;-72
2022/08/01 10:19:41;;;;;;;11.90;1.88;;;21.20;94.60;;;;;;5111304;28;20114;-72
2022/08/01 10:22:16;;;;;;;11.30;2.05;;;20.90;93.20;;;;;;5112942;28;20462;-72
2022/08/01 10:24:43;;;;;;;5.68;1.58;;;20.90;94.50;;;;;;5111540;28;20493;-72
2022/08/01 10:27:10;;;;;;;6.63;2.35;;;20.70;94.20;;;;;;5111488;28;20051;-71
2022/08/01 10:29:46;;;;;;;9.02;2.15;;;20.80;92.90;;;;;;5112457;28;20493;-72
2022/08/01 10:32:12;;;;;;;8.48;1.70;;;20.60;92.20;;;;;;5111378;28;20517;-72
2022/08/01 10:34:38;;;;;;;8.38;1.88;;;20.70;93.90;;;;;;5131093;27;20075;-72
2022/08/01 10:37:05;;;;;;;6.68;1.80;;;20.80;93.50;;;;;;5133038;27;20092;-72
2022/08/01 10:39:32;;;;;;;10.10;2.17;;;20.70;93.00;;;;;;5131590;27;20047;-72
2022/08/01 10:41:59;;;;;;;8.00;1.92;;;20.40;92.30;;;;;;5132949;27;20087;-72
2022/08/01 10:44:27;;;;;;;7.32;1.70;;;20.30;93.50;;;;;;5132021;27;20594;-72
2022/08/01 10:46:59;;;;;;;11.07;1.88;;;20.40;92.60;;;;;;5133144;27;20084;-72
2022/08/01 10:49:28;;;;;;;9.18;1.50;;;20.50;90.90;;;;;;5132831;27;20110;-72
2022/08/01 10:51:55;;;;;;;6.90;2.17;;;20.60;92.20;;;;;;5132898;27;20042;-72
2022/08/01 10:54:25;;;;;;;7.85;2.17;;;20.60;92.20;;;;;;5131418;27;20632;-72
2022/08/01 10:56:52;;;;;;;8.18;2.05;;;20.60;93.10;;;;;;5131439;27;20049;-72
2022/08/01 10:59:28;;;;;;;3.90;1.65;;;20.60;92.70;;;;;;5132527;27;20523;-72
2022/08/01 11:02:02;;;;;;;7.93;1.88;;;20.60;93.10;;;;;;5131506;27;20063;-73
2022/08/01 11:04:45;;;;;;;6.25;1.50;;;20.60;92.70;;;;;;5131735;27;20530;-73
2022/08/01 11:07:18;;;;;;;11.60;2.30;;;20.70;93.60;;;;;;5132621;27;20039;-72
2022/08/01 11:09:47;;;;;;;6.50;1.60;;;20.70;92.70;;;;;;5132410;27;20046;-72
2022/08/01 11:12:17;;;;;;;10.02;2.72;;;20.50;92.80;;;;;;5131326;28;20039;-72
2022/08/01 11:14:58;;;;;;;5.45;1.08;;;20.60;92.50;;;;;;5132622;27;20031;-72
2022/08/01 11:17:34;;;;;;;8.65;1.60;;;20.60;91.90;;;;;;5114052;28;20051;-72
2022/08/01 11:20:54;;;;;;;5.32;1.40;;;20.30;90.40;;;;;;5121931;28;20111;-69
2022/08/01 11:23:19;;;;;;;6.43;1.40;;;20.60;91.60;;;;;;5030555;28;20106;-71
2022/08/01 11:25:47;;;;;;;5.82;1.40;;;20.80;91.60;;;;;;5020011;28;20053;-70
2022/08/01 11:28:19;;;;;;;7.20;1.50;;;20.90;90.60;;;;;;5082596;28;20062;-70
2022/08/01 11:30:52;;;;;;;7.22;1.73;;;21.20;91.40;;;;;;5110652;28;20051;-71
2022/08/01 11:33:38;;;;;;;4.60;1.38;;;21.30;91.20;;;;;;5109966;28;20057;-71
2022/08/01 11:36:10;;;;;;;7.28;1.75;;;20.80;90.10;;;;;;5110443;28;20035;-70
2022/08/01 11:38:40;;;;;;;7.28;1.67;;;20.90;87.70;;;;;;5112004;28;20047;-71
2022/08/01 11:41:09;;;;;;;8.13;1.40;;;20.50;86.10;;;;;;5110469;28;20081;-71
2022/08/01 11:43:34;;;;;;;7.10;1.90;;;20.60;85.50;;;;;;5111307;28;20093;-70
2022/08/01 11:46:01;;;;;;;7.03;1.50;;;20.70;85.10;;;;;;5119482;28;20035;-70
2022/08/01 11:48:28;;;;;;;9.95;1.73;;;20.80;86.40;;;;;;5120499;27;20048;-70
2022/08/01 11:50:57;;;;;;;9.90;1.95;;;20.60;84.80;;;;;;5116938;27;20031;-70
2022/08/01 11:53:23;;;;;;;5.70;1.27;;;20.60;84.10;;;;;;5143468;22;20048;-65
2022/08/01 11:55:51;;;;;;;6.28;1.50;;;20.70;85.00;;;;;;5070869;28;20044;-66
2022/08/01 11:58:21;;;;;;;4.57;1.38;;;20.80;85.90;;;;;;5070517;28;20033;-66
2022/08/01 12:00:55;;;;;;;7.63;1.35;;;20.70;84.90;;;;;;5068525;28;20066;-65
2022/08/01 12:03:28;;;;;;;6.95;1.38;;;20.60;82.30;;;;;;5071426;28;20032;-65
2022/08/01 12:05:55;;;;;;;3.83;1.17;;;20.60;87.50;;;;;;5074721;28;20040;-65
2022/08/01 12:08:28;;;;;;;7.25;1.20;;;20.80;88.60;;;;;;5074904;28;20079;-65
2022/08/01 12:10:54;;;;;;;9.40;1.25;;;20.80;84.60;;;;;;5074372;28;20033;-66
2022/08/01 12:13:21;;;;;;;6.00;1.40;;;20.80;83.60;;;;;;5074757;28;20428;-66
2022/08/01 12:15:47;;;;;;;8.15;1.45;;;20.40;80.70;;;;;;5074418;28;20101;-65
2022/08/01 12:18:13;;;;;;;16.00;2.80;;;20.60;84.10;;;;;;5075374;28;20068;-65
2022/08/01 12:20:43;;;;;;;5.07;1.27;;;20.40;80.70;;;;;;5073618;28;20079;-65
2022/08/01 12:23:11;;;;;;;5.43;1.60;;;20.60;77.70;;;;;;5074969;28;20033;-65
2022/08/01 12:25:39;;;;;;;4.78;1.17;;;20.60;75.60;;;;;;5073500;28;20059;-65
2022/08/01 12:28:09;;;;;;;5.30;1.38;;;20.70;78.70;;;;;;5074704;28;20044;-66
2022/08/01 12:30:36;;;;;;;10.52;1.83;;;20.30;76.90;;;;;;5074004;28;20406;-65
2022/08/01 12:33:07;;;;;;;5.32;1.40;;;20.60;78.50;;;;;;5075680;28;20059;-66
2022/08/01 12:35:34;;;;;;;7.22;1.10;;;20.40;77.60;;;;;;5075389;28;20516;-65
2022/08/01 12:38:26;;;;;;;4.35;1.30;;;20.50;80.30;;;;;;5074215;28;20043;-65
2022/08/01 12:40:52;;;;;;;4.75;0.98;;;20.60;78.80;;;;;;5073862;28;20047;-65
2022/08/01 12:43:20;;;;;;;6.75;2.08;;;20.70;81.20;;;;;;5074340;28;20029;-65
2022/08/01 12:45:49;;;;;;;9.80;2.00;;;20.70;81.30;;;;;;5074280;28;20036;-66
2022/08/01 12:48:17;;;;;;;3.90;1.15;;;20.80;80.40;;;;;;5074243;28;20458;-66